Terminal Aerodrome Forecast
Issued by NWS

Home | Current Version | Previous Version | Graphics & Text | Print | Product List | Glossary On
Versions: 1 2 3 4 5 6 7 8 9 10 11 12 13
000
FTUS45 KGGW 230520
TAFOLF
TAF
KOLF 230520Z 2306/2406 30011KT P6SM VCTS BKN100CB
     FM231100 30007KT P6SM SCT100 WS020/30035KT
     FM231800 28023G35KT P6SM FEW250
     FM240300 31008KT P6SM SCT200=

USA.gov is the U.S. government's official web portal to all federal, state and local government web resources and services.